Time;durP1;ratioP1;P1;durP2;ratioP2;P2;SDS_P1;SDS_P2;PMS_P1;PMS_P2;Temp;Humidity;BMP_temperature;BMP_pressure;BME280_temperature;BME280_humidity;BME280_pressure;Samples;Min_cycle;Max_cycle;Signal;HPM_P1;HPM_P2
2021/07/25 00:01:40;;;;;;;22.78;15.65;;;;;;;16.79;77.34;99691.48;130508;1087;22581;-59
2021/07/25 00:04:09;;;;;;;25.23;15.58;;;;;;;16.79;77.43;99691.48;130364;1090;114142;-59
2021/07/25 00:06:37;;;;;;;23.93;16.18;;;;;;;16.78;77.52;99689.84;130477;1090;22612;-59
2021/07/25 00:09:06;;;;;;;21.83;14.38;;;;;;;16.76;77.55;99687.38;130380;1089;114212;-60
2021/07/25 00:11:35;;;;;;;22.38;14.38;;;;;;;16.75;77.31;99679.42;130450;1086;22642;-59
2021/07/25 00:14:05;;;;;;;18.68;14.33;;;;;;;16.73;77.29;99678.92;130485;1089;23631;-60
2021/07/25 00:16:34;;;;;;;21.40;14.63;;;;;;;16.70;77.27;99685.00;130368;1089;115706;-60
2021/07/25 00:19:03;;;;;;;23.43;15.05;;;;;;;16.67;77.20;99683.66;130202;1090;22570;-60
2021/07/25 00:21:32;;;;;;;24.40;15.35;;;;;;;16.64;77.41;99684.23;130371;1090;114300;-60
2021/07/25 00:24:02;;;;;;;18.45;14.20;;;;;;;16.61;77.34;99688.36;130500;1087;22603;-60
2021/07/25 00:26:47;;;;;;;24.48;14.05;;;;;;;16.59;77.35;99685.08;130477;1087;23466;-60
2021/07/25 00:29:16;;;;;;;21.80;15.23;;;;;;;16.55;77.35;99692.30;130375;1088;113998;-60
2021/07/25 00:31:45;;;;;;;21.58;14.45;;;;;;;16.52;77.63;99683.80;130440;1090;22555;-61
2021/07/25 00:34:14;;;;;;;17.83;14.70;;;;;;;16.52;77.82;99681.05;130353;1090;113286;-60
2021/07/25 00:36:43;;;;;;;20.43;15.28;;;;;;;16.53;77.96;99679.95;130497;1089;22585;-60
2021/07/25 00:39:12;;;;;;;22.70;15.75;;;;;;;16.55;78.05;99672.22;130326;1087;114248;-59
2021/07/25 00:41:43;;;;;;;21.83;15.45;;;;;;;16.57;78.19;99678.25;130474;1088;23241;-59
2021/07/25 00:44:12;;;;;;;21.83;15.23;;;;;;;16.60;78.09;99680.39;130480;1090;23370;-60
2021/07/25 00:46:41;;;;;;;21.35;14.35;;;;;;;16.61;77.86;99682.03;130377;1088;113963;-59
2021/07/25 00:49:10;;;;;;;19.43;15.35;;;;;;;16.60;77.76;99680.39;130470;1088;23445;-59
2021/07/25 00:51:40;;;;;;;22.75;14.93;;;;;;;16.59;77.63;99682.33;130383;1088;114369;-59
2021/07/25 00:54:08;;;;;;;18.98;15.28;;;;;;;16.57;77.47;99675.50;130483;1089;22527;-59
2021/07/25 00:56:37;;;;;;;19.78;15.43;;;;;;;16.57;77.60;99679.08;130483;1088;22581;-60
2021/07/25 00:59:07;;;;;;;23.78;16.73;;;;;;;16.56;77.70;99679.37;130395;1088;114434;-60
2021/07/25 01:01:35;;;;;;;23.35;14.85;;;;;;;16.55;77.57;99685.98;130458;1087;22547;-60
2021/07/25 01:04:19;;;;;;;21.18;15.73;;;;;;;16.53;77.59;99683.52;130388;1089;114332;-59
2021/07/25 01:06:52;;;;;;;22.88;16.00;;;;;;;16.53;77.90;99688.20;130494;1087;22551;-59
2021/07/25 01:09:28;;;;;;;24.65;16.68;;;;;;;16.52;77.78;99686.56;130431;1090;114271;-59
2021/07/25 01:11:58;;;;;;;26.38;15.43;;;;;;;16.50;77.33;99684.09;130457;1090;22585;-60
2021/07/25 01:14:30;;;;;;;22.48;16.70;;;;;;;16.48;77.55;99689.06;130484;1090;22535;-59
2021/07/25 01:17:26;;;;;;;31.03;16.85;;;;;;;16.44;77.57;99690.78;130399;1087;114149;-60
2021/07/25 01:20:03;;;;;;;23.38;16.03;;;;;;;16.42;77.73;99693.00;130441;1088;22575;-60
2021/07/25 01:22:34;;;;;;;22.78;14.93;;;;;;;16.41;77.76;99688.61;130375;1090;114115;-60
2021/07/25 01:25:04;;;;;;;22.60;16.33;;;;;;;16.39;77.70;99690.83;130519;1090;22503;-59
2021/07/25 01:27:46;;;;;;;21.43;15.98;;;;;;;16.36;77.50;99688.66;130388;1089;114340;-60
2021/07/25 01:30:16;;;;;;;21.48;15.08;;;;;;;16.31;77.46;99694.20;130478;1089;22533;-59
2021/07/25 01:32:45;;;;;;;22.80;16.10;;;;;;;16.28;77.66;99685.73;130449;1090;23057;-60
2021/07/25 01:35:14;;;;;;;23.88;16.48;;;;;;;16.24;77.85;99688.25;130369;1087;114134;-60
2021/07/25 01:37:43;;;;;;;23.95;17.30;;;;;;;16.20;77.83;99685.25;130462;1088;22612;-59
2021/07/25 01:40:16;;;;;;;22.35;15.80;;;;;;;16.19;78.13;99688.29;130412;1090;114450;-60
2021/07/25 01:42:45;;;;;;;21.98;16.30;;;;;;;16.17;78.27;99683.08;130463;1089;22579;-60
2021/07/25 01:45:14;;;;;;;20.73;15.38;;;;;;;16.16;78.30;99680.61;130397;1089;114171;-60
2021/07/25 01:47:42;;;;;;;21.58;14.70;;;;;;;16.12;78.29;99683.16;130465;1087;22500;-60
2021/07/25 01:50:12;;;;;;;21.43;14.43;;;;;;;16.08;77.84;99682.08;130467;1090;22539;-60
2021/07/25 01:52:41;;;;;;;21.28;15.70;;;;;;;16.07;78.24;99688.69;130370;1089;115090;-60
2021/07/25 01:55:11;;;;;;;19.88;15.55;;;;;;;16.06;78.25;99683.48;130520;1088;22538;-60
2021/07/25 01:57:40;;;;;;;21.63;15.68;;;;;;;16.03;78.34;99689.55;130360;1090;114312;-60
2021/07/25 02:00:09;;;;;;;19.20;14.70;;;;;;;16.00;78.56;99684.66;130489;1089;22568;-62
2021/07/25 02:02:38;;;;;;;17.03;14.90;;;;;;;15.99;78.64;99699.50;130495;1089;22527;-60
2021/07/25 02:05:07;;;;;;;23.08;16.23;;;;;;;15.98;78.81;99695.11;130394;1087;114159;-60
2021/07/25 02:07:39;;;;;;;26.30;17.13;;;;;;;15.97;79.12;99697.04;130477;1090;22530;-60
2021/07/25 02:10:09;;;;;;;20.28;15.55;;;;;;;15.97;79.12;99694.29;130398;1090;114355;-61
2021/07/25 02:12:38;;;;;;;19.75;15.05;;;;;;;15.97;78.87;99696.22;130485;1090;22576;-60
2021/07/25 02:15:07;;;;;;;27.40;15.73;;;;;;;15.97;78.94;99698.97;130362;1087;115694;-61
2021/07/25 02:17:36;;;;;;;24.15;16.05;;;;;;;15.96;79.13;99697.33;130527;1088;22552;-60
2021/07/25 02:20:06;;;;;;;20.03;15.58;;;;;;;15.95;79.38;99702.00;130489;1088;23749;-60
2021/07/25 02:22:35;;;;;;;25.20;15.78;;;;;;;15.95;79.22;99703.92;130356;1088;114124;-60
2021/07/25 02:25:04;;;;;;;23.65;15.90;;;;;;;15.94;79.17;99696.79;130492;1087;22577;-60
2021/07/25 02:27:33;;;;;;;27.28;16.23;;;;;;;15.94;79.31;99705.86;130424;1090;114319;-61
2021/07/25 02:30:03;;;;;;;25.73;16.08;;;;;;;15.93;79.21;99706.96;130489;1087;22541;-60
2021/07/25 02:32:32;;;;;;;23.65;16.00;;;;;;;15.91;79.29;99699.00;130486;1089;22502;-60
2021/07/25 02:35:01;;;;;;;22.48;14.35;;;;;;;15.92;79.15;99705.32;130350;1088;114555;-60
2021/07/25 02:37:30;;;;;;;23.78;14.48;;;;;;;15.90;79.04;99708.35;130486;1090;22549;-61
2021/07/25 02:39:59;;;;;;;24.95;15.88;;;;;;;15.88;79.29;99704.25;130412;1087;114308;-60
2021/07/25 02:42:28;;;;;;;22.55;16.05;;;;;;;15.87;79.37;99703.42;130501;1087;23421;-60
2021/07/25 02:44:57;;;;;;;18.73;15.80;;;;;;;15.89;79.71;99712.20;130449;1089;22537;-60
2021/07/25 02:47:25;;;;;;;23.18;15.30;;;;;;;15.89;79.63;99709.45;130383;1089;113994;-60
2021/07/25 02:49:54;;;;;;;23.55;15.65;;;;;;;15.91;79.47;99706.42;130416;1087;23477;-60
2021/07/25 02:52:23;;;;;;;20.80;14.60;;;;;;;15.91;79.71;99709.99;130395;1089;114471;-60
2021/07/25 02:54:52;;;;;;;20.85;14.78;;;;;;;15.94;79.81;99711.35;130525;1089;22525;-60
2021/07/25 02:57:21;;;;;;;23.08;16.50;;;;;;;15.97;80.07;99715.45;130347;1088;114254;-61
2021/07/25 02:59:51;;;;;;;25.48;14.15;;;;;;;15.99;80.12;99713.24;130495;1088;22578;-60
2021/07/25 03:02:19;;;;;;;19.18;15.13;;;;;;;16.01;79.95;99711.85;130528;1087;22555;-60
2021/07/25 03:04:51;;;;;;;20.38;15.30;;;;;;;16.06;80.29;99720.03;130365;1090;114158;-60
2021/07/25 03:07:20;;;;;;;20.15;15.20;;;;;;;16.10;80.11;99712.85;130501;1090;22571;-60
2021/07/25 03:09:49;;;;;;;25.23;15.60;;;;;;;16.15;80.62;99720.24;130389;1088;113408;-60
2021/07/25 03:12:18;;;;;;;24.15;17.35;;;;;;;16.20;80.60;99722.92;130490;1090;22555;-60
2021/07/25 03:14:47;;;;;;;22.03;15.78;;;;;;;16.25;80.71;99720.95;130441;1090;22577;-60
2021/07/25 03:17:16;;;;;;;20.50;16.35;;;;;;;16.30;80.80;99733.84;130378;1090;114348;-60
2021/07/25 03:19:45;;;;;;;25.33;17.10;;;;;;;16.36;80.75;99732.66;130476;1090;23052;-60
2021/07/25 03:22:14;;;;;;;24.98;16.08;;;;;;;16.43;81.03;99732.33;130378;1090;114346;-59
2021/07/25 03:24:43;;;;;;;27.38;15.43;;;;;;;16.47;80.87;99733.36;130505;1087;22523;-59
2021/07/25 03:27:11;;;;;;;25.13;17.13;;;;;;;16.53;80.91;99734.95;130058;1090;114177;-60
2021/07/25 03:29:40;;;;;;;24.93;17.68;;;;;;;16.60;81.00;99738.16;130450;1087;22509;-59
2021/07/25 03:32:09;;;;;;;24.75;15.90;;;;;;;16.66;81.17;99737.03;130519;1087;22509;-60
2021/07/25 03:34:39;;;;;;;26.03;16.75;;;;;;;16.74;81.34;99732.81;130400;1088;114159;-59
2021/07/25 03:37:08;;;;;;;19.88;17.05;;;;;;;16.82;81.45;99744.00;130437;1087;22541;-60
2021/07/25 03:39:37;;;;;;;24.55;18.15;;;;;;;16.91;81.43;99742.23;130345;1090;114515;-60
2021/07/25 03:42:06;;;;;;;27.98;18.40;;;;;;;17.01;81.20;99746.81;130487;1090;23344;-60
2021/07/25 03:44:35;;;;;;;29.60;18.35;;;;;;;17.14;80.93;99750.77;130475;1090;22608;-60
2021/07/25 03:47:04;;;;;;;23.93;17.05;;;;;;;17.25;80.66;99761.34;130378;1090;114101;-60
2021/07/25 03:49:33;;;;;;;25.00;18.10;;;;;;;17.36;80.30;99752.94;130503;1089;23718;-60
2021/07/25 03:52:02;;;;;;;29.83;19.35;;;;;;;17.47;80.03;99751.66;130369;1090;114131;-60
2021/07/25 03:54:31;;;;;;;27.68;19.53;;;;;;;17.58;79.57;99753.99;130491;1090;22531;-60
2021/07/25 03:57:00;;;;;;;26.83;18.43;;;;;;;17.70;79.31;99750.81;130458;1087;23683;-60
2021/07/25 03:59:29;;;;;;;30.88;21.13;;;;;;;17.82;78.85;99747.59;130392;1088;113901;-60
2021/07/25 04:01:58;;;;;;;27.93;19.75;;;;;;;17.93;78.17;99747.12;130482;1088;22534;-60
2021/07/25 04:04:27;;;;;;;36.05;21.23;;;;;;;18.06;78.13;99747.45;130378;1090;114288;-60
2021/07/25 04:06:56;;;;;;;35.15;20.30;;;;;;;18.18;77.30;99745.86;130499;1090;23125;-60
2021/07/25 04:09:25;;;;;;;46.17;26.10;;;;;;;18.31;76.69;99756.13;130382;1090;114219;-60
2021/07/25 04:11:55;;;;;;;44.13;27.20;;;;;;;18.47;76.38;99751.13;130514;1090;23474;-60
2021/07/25 04:14:24;;;;;;;54.98;29.78;;;;;;;18.64;75.83;99751.38;130502;1087;22582;-60
2021/07/25 04:16:53;;;;;;;64.80;33.10;;;;;;;18.80;75.17;99748.32;130391;1088;114115;-60
2021/07/25 04:19:22;;;;;;;73.08;37.18;;;;;;;18.95;74.51;99753.53;130472;1090;22515;-60
2021/07/25 04:21:50;;;;;;;61.68;35.98;;;;;;;19.08;73.93;99749.94;130383;1090;114181;-60
2021/07/25 04:24:19;;;;;;;66.28;35.53;;;;;;;19.19;73.61;99754.11;130494;1090;22544;-60
2021/07/25 04:26:51;;;;;;;55.73;32.93;;;;;;;19.30;73.43;99755.55;130507;1090;22683;-60
2021/07/25 04:29:20;;;;;;;54.85;30.98;;;;;;;19.41;72.77;99756.14;130395;1087;115892;-60
2021/07/25 04:31:49;;;;;;;48.68;29.20;;;;;;;19.52;72.39;99751.22;130448;1088;23540;-60
2021/07/25 04:34:18;;;;;;;46.93;26.70;;;;;;;19.61;72.03;99749.38;130380;1088;114264;-60
2021/07/25 04:36:48;;;;;;;44.90;25.35;;;;;;;19.72;71.72;99747.99;130163;1089;22571;-60
2021/07/25 04:39:17;;;;;;;37.20;24.20;;;;;;;19.83;71.48;99746.61;130367;1090;114466;-60
2021/07/25 04:41:51;;;;;;;39.00;23.58;;;;;;;19.94;71.03;99749.94;130493;1088;22525;-60
2021/07/25 04:44:21;;;;;;;37.13;23.35;;;;;;;20.03;70.63;99748.89;130479;1088;22556;-60
2021/07/25 04:46:52;;;;;;;35.15;22.88;;;;;;;20.15;70.54;99753.02;130398;1087;114074;-60
2021/07/25 04:49:31;;;;;;;33.03;20.63;;;;;;;20.25;70.54;99759.10;130448;1087;22536;-60
2021/07/25 04:51:59;;;;;;;42.90;21.85;;;;;;;20.32;70.19;99753.95;130353;1089;114568;-60
2021/07/25 04:54:32;;;;;;;27.85;18.98;;;;;;;20.40;70.02;99752.38;130462;1090;22532;-60
2021/07/25 04:57:04;;;;;;;27.68;18.30;;;;;;;20.49;70.21;99758.77;130448;1087;22585;-60
2021/07/25 04:59:34;;;;;;;26.90;18.53;;;;;;;20.57;69.40;99766.31;130420;1088;114332;-60
2021/07/25 05:02:04;;;;;;;34.25;20.05;;;;;;;20.64;69.15;99761.13;130496;1090;22499;-60
2021/07/25 05:04:34;;;;;;;32.98;20.85;;;;;;;20.75;69.06;99765.27;130340;1090;114565;-60
2021/07/25 05:07:03;;;;;;;31.80;20.33;;;;;;;20.87;68.76;99752.77;130459;1087;22538;-60
2021/07/25 05:09:33;;;;;;;35.80;19.78;;;;;;;20.97;68.37;99769.90;130397;1090;114295;-60
2021/07/25 05:12:18;;;;;;;34.43;20.78;;;;;;;21.10;67.60;99768.14;130468;1090;22590;-60
2021/07/25 05:15:05;;;;;;;32.00;20.00;;;;;;;21.26;67.23;99766.59;130470;1089;22539;-60
2021/07/25 05:17:42;;;;;;;30.90;19.88;;;;;;;21.50;66.79;99766.94;130395;1088;113951;-60
2021/07/25 05:20:17;;;;;;;27.95;19.10;;;;;;;21.87;66.29;99764.69;130438;1087;22960;-60
2021/07/25 05:22:58;;;;;;;34.58;18.80;;;;;;;22.31;65.30;99762.70;130344;1090;114235;-58
2021/07/25 05:25:31;;;;;;;32.38;18.75;;;;;;;22.80;63.93;99770.41;130461;1089;22634;-60
2021/07/25 05:28:05;;;;;;;27.40;17.05;;;;;;;23.21;62.30;99757.80;130402;1088;114113;-60
2021/07/25 05:30:38;;;;;;;25.58;16.63;;;;;;;23.57;61.28;99760.84;130442;1090;22585;-60
2021/07/25 05:33:07;;;;;;;23.18;16.63;;;;;;;23.88;60.42;99767.97;130493;1088;22568;-60
2021/07/25 05:35:36;;;;;;;22.45;16.00;;;;;;;24.12;59.79;99762.50;130380;1088;113799;-59
2021/07/25 05:38:06;;;;;;;24.53;16.15;;;;;;;24.37;58.69;99757.06;130446;1089;22580;-59
2021/07/25 05:40:34;;;;;;;26.48;16.23;;;;;;;24.60;57.53;99761.05;127687;1089;114179;-58
2021/07/25 05:43:03;;;;;;;25.43;16.40;;;;;;;24.79;56.83;99758.53;125923;1088;22761;-59
2021/07/25 05:45:32;;;;;;;24.35;17.05;;;;;;;24.98;56.37;99766.33;130221;1089;114401;-59
2021/07/25 05:48:01;;;;;;;26.00;17.33;;;;;;;25.09;56.40;99767.52;130460;1090;22529;-59
2021/07/25 05:50:30;;;;;;;26.15;16.13;;;;;;;25.18;55.60;99767.39;130456;1087;22507;-60
2021/07/25 05:52:59;;;;;;;25.88;16.23;;;;;;;25.32;55.52;99773.42;130325;1087;114191;-59
2021/07/25 05:55:32;;;;;;;23.10;15.93;;;;;;;25.54;54.40;99772.91;130514;1087;23321;-61
2021/07/25 05:58:01;;;;;;;23.02;16.13;;;;;;;25.82;53.75;99767.43;130314;1088;114244;-60
2021/07/25 06:00:30;;;;;;;26.43;15.78;;;;;;;26.16;53.52;99768.80;130477;1089;22562;-60
2021/07/25 06:03:02;;;;;;;19.67;13.97;;;;;;;26.52;52.35;99767.02;130487;1087;22524;-58
2021/07/25 06:05:34;;;;;;;19.13;12.90;;;;;;;26.86;51.94;99755.13;130348;1087;114017;-58
2021/07/25 06:08:05;;;;;;;20.03;12.13;;;;;;;27.17;50.90;99750.70;130451;1090;22546;-60
2021/07/25 06:10:35;;;;;;;15.18;10.58;;;;;;;27.40;49.80;99755.28;130367;1088;114622;-60
2021/07/25 06:13:04;;;;;;;14.40;7.78;;;;;;;27.51;47.75;99751.91;130403;1087;22585;-59
2021/07/25 06:15:34;;;;;;;10.80;8.75;;;;;;;27.49;46.88;99751.45;130333;1088;115205;-59
2021/07/25 06:18:06;;;;;;;11.90;8.75;;;;;;;27.41;46.06;99750.50;130465;1090;22549;-60
2021/07/25 06:20:35;;;;;;;15.88;9.60;;;;;;;27.29;47.76;99756.19;130438;1090;22532;-58
2021/07/25 06:23:04;;;;;;;15.00;10.35;;;;;;;27.15;48.07;99753.05;130318;1090;114103;-58
2021/07/25 06:25:33;;;;;;;14.13;10.43;;;;;;;27.01;48.30;99759.93;130438;1087;22599;-58
2021/07/25 06:28:03;;;;;;;16.13;11.63;;;;;;;26.86;49.10;99766.30;130332;1087;114305;-58
2021/07/25 06:30:34;;;;;;;21.80;11.20;;;;;;;26.75;50.65;99768.84;130463;1087;22606;-59
2021/07/25 06:33:05;;;;;;;21.30;11.53;;;;;;;26.66;50.33;99764.60;130416;1090;22572;-58
2021/07/25 06:35:41;;;;;;;13.20;11.45;;;;;;;26.53;50.10;99761.08;130373;1087;114288;-59
2021/07/25 06:38:12;;;;;;;13.53;10.63;;;;;;;26.41;50.68;99770.32;130431;1087;22572;-58
2021/07/25 06:40:42;;;;;;;12.70;11.08;;;;;;;26.33;51.17;99764.91;127343;1090;114273;-58
2021/07/25 06:43:20;;;;;;;14.93;11.43;;;;;;;26.26;50.45;99773.86;125860;1090;24410;-58
2021/07/25 06:45:55;;;;;;;15.03;12.23;;;;;;;26.20;50.35;99780.08;130068;1090;114563;-58
2021/07/25 06:48:25;;;;;;;13.98;10.68;;;;;;;26.15;50.80;99772.75;130458;1087;22531;-58
2021/07/25 06:50:56;;;;;;;15.78;11.18;;;;;;;26.10;50.11;99781.41;130528;1087;22540;-58
2021/07/25 06:53:25;;;;;;;19.45;11.70;;;;;;;26.08;50.68;99780.95;130326;1087;114138;-58
2021/07/25 06:55:58;;;;;;;14.33;10.55;;;;;;;26.08;51.09;99789.32;130521;1087;22563;-58
2021/07/25 06:58:27;;;;;;;12.35;10.38;;;;;;;26.10;50.67;99783.39;130339;1089;114196;-58
2021/07/25 07:00:56;;;;;;;13.83;10.13;;;;;;;26.12;49.87;99783.81;130509;1087;22631;-58
2021/07/25 07:03:25;;;;;;;15.60;9.85;;;;;;;26.12;48.82;99786.61;130391;1088;114365;-59
2021/07/25 07:05:54;;;;;;;16.38;10.75;;;;;;;26.05;49.22;99792.81;130498;1087;22540;-58
2021/07/25 07:08:23;;;;;;;15.45;10.50;;;;;;;25.99;50.24;99797.02;130116;1090;22578;-58
2021/07/25 07:10:52;;;;;;;11.58;9.63;;;;;;;25.98;50.84;99800.97;130408;1087;114114;-57
2021/07/25 07:15:11;;;;;;;10.93;8.20;;;;;;;25.99;49.13;99808.19;125656;1090;23238;-57
2021/07/25 07:17:40;;;;;;;10.73;9.28;;;;;;;26.00;48.42;99807.84;125189;1092;113525;-58
2021/07/25 07:20:11;;;;;;;11.08;9.15;;;;;;;26.01;48.96;99794.69;125271;1093;25859;-58
2021/07/25 07:22:40;;;;;;;12.45;8.78;;;;;;;25.98;48.28;99795.39;129868;1092;113612;-58
2021/07/25 07:25:09;;;;;;;15.60;10.20;;;;;;;25.91;48.37;99786.82;130085;1093;22559;-58
2021/07/25 07:27:38;;;;;;;11.50;9.38;;;;;;;25.88;49.24;99788.34;129935;1093;113972;-58
2021/07/25 07:30:07;;;;;;;16.63;9.83;;;;;;;25.87;49.87;99785.89;130067;1092;23345;-58
2021/07/25 07:32:36;;;;;;;15.20;9.98;;;;;;;25.88;50.29;99788.34;130055;1093;23454;-58
2021/07/25 07:35:05;;;;;;;13.90;9.15;;;;;;;25.91;50.34;99792.41;129948;1092;113464;-58
2021/07/25 07:37:34;;;;;;;12.05;9.25;;;;;;;25.98;50.62;99789.80;130065;1093;23366;-58
2021/07/25 07:40:03;;;;;;;15.88;8.85;;;;;;;26.01;50.26;99791.89;128138;1093;113815;-59
2021/07/25 07:42:32;;;;;;;14.95;9.95;;;;;;;26.02;51.46;99797.13;130028;1093;22552;-58
2021/07/25 07:45:06;;;;;;;16.85;8.68;;;;;;;26.03;49.29;99790.38;130070;1092;22551;-58
2021/07/25 07:47:35;;;;;;;9.55;8.48;;;;;;;26.06;49.57;99794.45;129930;1093;113024;-58
2021/07/25 07:50:04;;;;;;;11.15;8.23;;;;;;;26.07;47.55;99787.70;130006;1093;22583;-58
2021/07/25 07:52:33;;;;;;;11.08;8.20;;;;;;;26.06;48.01;99792.47;129721;1093;113854;-58
2021/07/25 07:55:03;;;;;;;9.85;8.35;;;;;;;26.08;47.95;99806.08;129826;1093;22536;-58
2021/07/25 07:57:31;;;;;;;10.90;8.23;;;;;;;26.10;48.71;99803.75;129731;1093;114934;-58
2021/07/25 08:00:00;;;;;;;9.18;8.28;;;;;;;26.13;46.87;99804.99;129743;1093;22537;-58
2021/07/25 08:02:40;;;;;;;11.78;8.23;;;;;;;26.13;47.99;99805.81;129828;1093;23065;-58
2021/07/25 08:05:09;;;;;;;10.88;7.50;;;;;;;26.16;48.05;99798.70;129751;1093;113742;-58
2021/07/25 08:07:40;;;;;;;13.73;7.55;;;;;;;26.20;47.35;99800.44;129806;1093;22562;-58
2021/07/25 08:10:09;;;;;;;11.40;7.53;;;;;;;26.22;46.40;99800.91;129713;1093;114257;-59
2021/07/25 08:12:38;;;;;;;8.50;7.70;;;;;;;26.25;45.81;99805.78;129807;1092;22565;-58
2021/07/25 08:15:07;;;;;;;9.68;7.45;;;;;;;26.23;45.78;99796.94;129831;1093;22579;-60
2021/07/25 08:17:36;;;;;;;7.98;6.65;;;;;;;26.29;46.29;99803.09;129688;1093;114420;-58
2021/07/25 08:20:06;;;;;;;8.30;7.38;;;;;;;26.33;46.17;99802.05;129840;1092;22583;-59
2021/07/25 08:22:35;;;;;;;9.58;8.15;;;;;;;26.38;45.18;99800.98;129697;1093;113856;-58
2021/07/25 08:25:04;;;;;;;8.85;7.08;;;;;;;26.43;44.73;99799.89;129842;1092;22536;-58
2021/07/25 08:27:33;;;;;;;15.68;8.15;;;;;;;26.48;45.32;99796.84;129598;1093;113721;-58
2021/07/25 08:30:03;;;;;;;7.80;7.00;;;;;;;26.52;44.87;99795.78;129790;1092;22520;-59
2021/07/25 08:32:32;;;;;;;9.55;7.40;;;;;;;26.58;44.34;99796.31;129748;1093;23050;-59
2021/07/25 08:35:01;;;;;;;9.83;6.73;;;;;;;26.62;44.79;99794.44;129720;1093;113605;-58
2021/07/25 08:37:31;;;;;;;7.58;6.73;;;;;;;26.65;44.92;99794.54;129794;1093;22571;-59
2021/07/25 08:40:01;;;;;;;7.90;7.10;;;;;;;26.66;42.42;99790.58;128577;1092;114604;-60
2021/07/25 08:42:33;;;;;;;8.23;7.38;;;;;;;26.62;43.71;99792.45;126876;1093;22817;-60
2021/07/25 08:45:02;;;;;;;12.48;7.70;;;;;;;26.64;44.17;99800.48;126752;1091;22940;-60
2021/07/25 08:47:36;;;;;;;8.55;7.30;;;;;;;26.69;44.24;99795.42;126631;1093;114194;-57
2021/07/25 08:50:13;;;;;;;8.65;7.13;;;;;;;26.77;44.53;99799.23;126839;1092;22957;-59
2021/07/25 08:52:50;;;;;;;7.88;7.00;;;;;;;26.79;43.01;99794.09;126678;1093;113627;-59
2021/07/25 08:55:19;;;;;;;13.95;7.13;;;;;;;26.81;42.51;99799.33;126773;1093;22772;-59
2021/07/25 08:57:49;;;;;;;8.88;6.93;;;;;;;26.78;42.16;99800.86;126727;1092;115561;-59
2021/07/25 09:00:20;;;;;;;7.60;6.87;;;;;;;26.76;43.26;99801.22;126670;1093;22930;-59
2021/07/25 09:02:50;;;;;;;9.55;6.50;;;;;;;26.76;41.66;99797.61;129820;1093;22544;-59
2021/07/25 09:05:19;;;;;;;8.28;6.30;;;;;;;26.75;42.31;99796.80;129748;1093;114299;-59
2021/07/25 09:07:50;;;;;;;11.60;7.03;;;;;;;26.79;43.12;99796.08;129807;1093;22621;-59
2021/07/25 09:10:21;;;;;;;7.25;6.55;;;;;;;26.83;42.16;99803.40;129659;1093;114285;-59
2021/07/25 09:12:51;;;;;;;9.60;6.70;;;;;;;26.90;42.75;99802.75;129797;1092;22535;-60
2021/07/25 09:15:26;;;;;;;7.53;6.63;;;;;;;26.95;41.69;99802.53;129724;1093;114209;-60
2021/07/25 09:17:56;;;;;;;10.18;6.80;;;;;;;27.00;41.38;99799.44;129808;1091;23535;-59
2021/07/25 09:20:35;;;;;;;10.23;6.68;;;;;;;27.02;41.16;99802.69;129802;1093;22545;-59
2021/07/25 09:23:11;;;;;;;7.98;6.38;;;;;;;27.05;41.82;99799.18;129629;1092;114150;-60
2021/07/25 09:25:49;;;;;;;7.83;6.48;;;;;;;27.05;41.04;99805.59;129816;1093;23344;-60
2021/07/25 09:28:23;;;;;;;7.83;6.33;;;;;;;27.07;42.17;99806.04;129737;1092;114189;-60
2021/07/25 09:30:53;;;;;;;10.78;7.90;;;;;;;27.06;41.02;99800.80;129735;1093;23121;-60
2021/07/25 09:33:23;;;;;;;9.28;7.80;;;;;;;27.02;42.00;99802.69;129692;1092;113919;-60
2021/07/25 09:35:52;;;;;;;7.90;7.10;;;;;;;26.99;41.90;99806.20;129836;1093;23153;-60
2021/07/25 09:38:21;;;;;;;9.80;6.98;;;;;;;26.94;42.65;99804.52;129824;1093;22568;-59
2021/07/25 09:40:50;;;;;;;10.85;8.28;;;;;;;26.93;42.82;99808.48;129753;1093;113617;-59
2021/07/25 09:43:23;;;;;;;9.65;7.43;;;;;;;26.93;42.84;99800.09;129821;1093;22569;-59
2021/07/25 09:45:59;;;;;;;8.08;6.50;;;;;;;26.97;42.76;99809.39;130325;1090;113831;-62
2021/07/25 09:48:30;;;;;;;8.88;7.85;;;;;;;27.01;40.85;99813.06;130388;1090;22533;-60
2021/07/25 09:51:22;;;;;;;7.65;6.65;;;;;;;27.03;41.32;99807.93;130355;1090;22564;-59
2021/07/25 09:53:52;;;;;;;9.30;6.85;;;;;;;27.06;41.91;99811.99;129988;1090;113431;-60
2021/07/25 09:56:23;;;;;;;16.90;7.83;;;;;;;27.11;42.34;99817.33;130412;1090;22545;-60
2021/07/25 09:58:53;;;;;;;8.70;6.80;;;;;;;27.16;42.98;99814.23;130275;1090;113784;-61
2021/07/25 10:01:42;;;;;;;7.80;6.75;;;;;;;27.20;41.66;99814.33;130101;1090;22542;-60
2021/07/25 10:04:12;;;;;;;9.93;7.13;;;;;;;27.26;42.03;99804.50;130307;1090;114086;-61
2021/07/25 10:07:01;;;;;;;10.40;6.88;;;;;;;27.31;41.10;99802.22;130172;1088;22587;-60
2021/07/25 10:09:30;;;;;;;8.83;7.13;;;;;;;27.34;40.78;99807.09;130034;1090;113966;-60
2021/07/25 10:12:01;;;;;;;9.15;6.25;;;;;;;27.34;41.24;99798.70;130106;1089;22565;-60
2021/07/25 10:14:31;;;;;;;10.33;7.90;;;;;;;27.31;41.50;99796.63;130416;1088;23588;-60
2021/07/25 10:17:04;;;;;;;10.13;6.95;;;;;;;27.28;42.53;99805.73;130292;1089;113802;-60
2021/07/25 10:19:39;;;;;;;12.18;7.20;;;;;;;27.21;42.10;99810.36;130387;1090;23259;-60
2021/07/25 10:22:10;;;;;;;7.95;6.55;;;;;;;27.10;41.67;99810.92;130310;1090;113972;-61
2021/07/25 10:24:40;;;;;;;10.25;8.00;;;;;;;27.00;41.21;99814.23;130462;1090;22602;-60
2021/07/25 10:27:09;;;;;;;7.78;6.60;;;;;;;26.95;42.26;99808.13;130436;1089;22562;-60
2021/07/25 10:29:39;;;;;;;11.75;8.00;;;;;;;26.89;41.64;99807.53;130213;1090;113752;-60
2021/07/25 10:32:08;;;;;;;8.58;7.53;;;;;;;26.85;42.92;99812.22;130535;1090;23340;-60
2021/07/25 10:34:39;;;;;;;9.85;7.10;;;;;;;26.86;43.83;99808.25;130376;1090;113840;-60
2021/07/25 10:37:10;;;;;;;8.18;7.13;;;;;;;26.89;42.84;99813.13;130469;1090;23377;-61
2021/07/25 10:39:46;;;;;;;10.85;6.70;;;;;;;26.93;44.00;99808.48;129390;1089;113814;-58
2021/07/25 10:42:22;;;;;;;10.10;7.35;;;;;;;27.00;43.59;99807.83;130138;1090;22545;-58
2021/07/25 10:44:51;;;;;;;9.85;6.65;;;;;;;27.05;41.93;99815.96;130151;1089;22543;-58
2021/07/25 10:47:27;;;;;;;8.40;6.93;;;;;;;27.04;41.68;99812.35;130090;1090;113662;-59
2021/07/25 10:49:57;;;;;;;10.65;7.75;;;;;;;27.03;42.68;99824.71;130207;1090;23657;-59
2021/07/25 10:52:27;;;;;;;14.93;6.73;;;;;;;27.01;41.28;99815.86;130086;1090;113813;-58
2021/07/25 10:54:55;;;;;;;8.08;6.90;;;;;;;26.97;40.65;99814.98;130482;1089;22586;-58
2021/07/25 10:57:24;;;;;;;7.88;6.38;;;;;;;26.96;41.18;99810.56;130467;1089;22555;-58
2021/07/25 10:59:57;;;;;;;14.63;6.18;;;;;;;26.97;39.31;99809.39;130095;1089;113547;-58
2021/07/25 11:02:29;;;;;;;12.15;7.50;;;;;;;26.96;39.21;99807.77;130499;1089;23339;-57
2021/07/25 11:04:58;;;;;;;7.58;6.48;;;;;;;26.96;41.09;99813.36;130383;1090;113772;-57
2021/07/25 11:07:27;;;;;;;9.28;6.85;;;;;;;26.99;42.12;99811.80;130452;1089;23070;-58
2021/07/25 11:10:09;;;;;;;10.40;6.33;;;;;;;27.06;40.92;99812.80;130381;1090;113799;-58
2021/07/25 11:12:50;;;;;;;7.80;7.00;;;;;;;27.12;40.18;99816.16;130471;1089;22484;-59
2021/07/25 11:15:28;;;;;;;9.63;6.95;;;;;;;27.16;39.02;99813.42;130442;1090;22600;-56
2021/07/25 11:18:07;;;;;;;8.53;6.80;;;;;;;27.17;39.05;99812.25;130363;1090;113588;-55
2021/07/25 11:20:37;;;;;;;7.23;6.25;;;;;;;27.16;37.78;99816.22;130432;1090;22520;-58
2021/07/25 11:23:21;;;;;;;8.90;5.95;;;;;;;27.14;39.32;99802.59;130341;1089;115545;-58
2021/07/25 11:25:51;;;;;;;8.15;5.95;;;;;;;27.14;38.63;99797.00;130471;1089;22639;-58
2021/07/25 11:28:43;;;;;;;6.53;5.85;;;;;;;27.13;38.88;99794.56;130116;1090;113779;-58
2021/07/25 11:31:13;;;;;;;7.98;7.15;;;;;;;27.13;39.86;99794.56;130485;1089;22560;-58